Time;durP1;ratioP1;P1;durP2;ratioP2;P2;SDS_P1;SDS_P2;PMS_P1;PMS_P2;Temp;Humidity;BMP_temperature;BMP_pressure;BME280_temperature;BME280_humidity;BME280_pressure;Samples;Min_cycle;Max_cycle;Signal;HPM_P1;HPM_P2
2021/07/08 15:09:20;;;;;;;3.50;2.10;;;28.00;67.70;;;;;;5311713;23;20055;-70
2021/07/08 15:11:45;;;;;;;3.15;1.85;;;27.80;66.70;;;;;;4975449;28;20034;-70
2021/07/08 15:14:11;;;;;;;3.10;2.13;;;27.70;68.00;;;;;;4975042;28;20026;-69
2021/07/08 15:16:37;;;;;;;3.80;2.00;;;27.70;65.90;;;;;;4974799;28;20034;-68
2021/07/08 15:19:03;;;;;;;2.08;1.83;;;27.60;66.00;;;;;;4975065;28;20352;-69
2021/07/08 15:21:28;;;;;;;2.33;1.75;;;27.50;65.50;;;;;;4973852;28;20022;-69
2021/07/08 15:23:54;;;;;;;2.85;2.00;;;27.30;66.30;;;;;;4974545;28;20023;-71
2021/07/08 15:26:19;;;;;;;3.45;2.05;;;27.20;67.10;;;;;;4975045;28;20035;-69
2021/07/08 15:28:45;;;;;;;3.88;2.00;;;27.20;68.60;;;;;;4975075;28;20106;-70
2021/07/08 15:31:10;;;;;;;4.80;2.10;;;27.20;68.40;;;;;;4973983;28;20031;-69
2021/07/08 15:33:37;;;;;;;3.00;1.50;;;27.10;69.10;;;;;;4975024;28;20411;-69
2021/07/08 15:36:04;;;;;;;2.78;1.80;;;27.10;73.10;;;;;;4966692;28;20360;-67
2021/07/08 15:38:30;;;;;;;3.70;2.00;;;27.00;75.50;;;;;;4968788;28;20022;-67
2021/07/08 15:40:55;;;;;;;3.53;1.92;;;27.00;77.40;;;;;;4978280;28;20038;-68
2021/07/08 15:43:21;;;;;;;2.40;1.92;;;26.80;75.70;;;;;;4967027;28;20090;-71
2021/07/08 15:45:46;;;;;;;3.28;2.25;;;26.60;79.20;;;;;;4982823;28;20041;-79
2021/07/08 15:48:12;;;;;;;2.55;1.85;;;26.50;83.20;;;;;;4985252;28;20030;-74
2021/07/08 15:50:38;;;;;;;2.72;2.42;;;26.30;85.50;;;;;;4970453;28;20166;-75
2021/07/08 15:53:04;;;;;;;5.15;2.53;;;26.20;86.50;;;;;;4969109;28;20490;-76
2021/07/08 15:55:30;;;;;;;4.72;2.45;;;26.00;88.40;;;;;;4970041;28;20027;-81
2021/07/08 15:57:55;;;;;;;4.72;2.30;;;25.90;90.10;;;;;;4969824;28;20037;-80
2021/07/08 16:00:21;;;;;;;3.53;2.50;;;25.70;90.80;;;;;;4965277;28;20101;-70
2021/07/08 16:02:47;;;;;;;3.35;2.22;;;25.50;91.10;;;;;;4951058;29;20035;-70
2021/07/08 16:05:12;;;;;;;3.28;2.30;;;25.40;91.60;;;;;;4950072;29;20415;-67
2021/07/08 16:07:38;;;;;;;6.75;3.63;;;25.20;91.40;;;;;;4951470;28;20178;-68
2021/07/08 16:10:05;;;;;;;10.32;3.83;;;25.10;91.70;;;;;;4976283;28;20482;-74
2021/07/08 16:12:31;;;;;;;4.88;3.10;;;24.50;96.50;;;;;;4989402;28;20057;-67
2021/07/08 16:14:56;;;;;;;3.65;2.90;;;23.80;99.70;;;;;;4984000;28;20157;-76
2021/07/08 16:17:22;;;;;;;3.90;3.10;;;23.40;99.90;;;;;;4969705;28;20133;-70
2021/07/08 16:19:48;;;;;;;4.30;3.20;;;23.00;99.90;;;;;;4953171;28;20482;-67
2021/07/08 16:22:13;;;;;;;5.63;2.80;;;22.60;99.90;;;;;;4970618;28;20542;-78
2021/07/08 16:24:39;;;;;;;5.20;3.22;;;22.30;99.90;;;;;;4970479;28;20433;-71
2021/07/08 16:27:05;;;;;;;4.70;3.63;;;21.90;99.90;;;;;;4969942;28;20568;-75
2021/07/08 16:29:30;;;;;;;3.33;3.03;;;21.80;99.90;;;;;;4970529;28;20033;-78
2021/07/08 16:31:56;;;;;;;4.43;3.20;;;21.70;99.90;;;;;;4970847;28;20031;-74
2021/07/08 16:34:22;;;;;;;3.70;3.10;;;21.70;99.90;;;;;;4969828;28;20246;-68
2021/07/08 16:36:48;;;;;;;3.03;2.75;;;21.70;99.90;;;;;;4970790;28;20553;-73
2021/07/08 16:39:14;;;;;;;4.32;3.20;;;21.70;99.90;;;;;;4970140;28;20516;-75
2021/07/08 16:41:41;;;;;;;4.95;3.42;;;21.80;99.90;;;;;;5000109;28;20030;-79
2021/07/08 16:44:07;;;;;;;4.38;3.95;;;21.80;99.90;;;;;;4992588;28;20069;-73
2021/07/08 16:46:33;;;;;;;4.15;3.75;;;21.90;99.90;;;;;;5009487;28;20037;-72
2021/07/08 16:48:58;;;;;;;5.47;4.00;;;22.00;99.90;;;;;;5008886;28;20022;-73
2021/07/08 16:51:24;;;;;;;4.43;3.53;;;22.10;99.90;;;;;;4993380;28;20529;-72
2021/07/08 16:53:50;;;;;;;3.85;3.33;;;22.30;99.90;;;;;;4990165;28;20476;-72
2021/07/08 16:56:16;;;;;;;6.03;3.97;;;22.50;99.90;;;;;;4989000;28;20038;-76
2021/07/08 16:58:42;;;;;;;4.35;3.95;;;22.60;99.90;;;;;;4990414;28;20076;-72
2021/07/08 17:01:07;;;;;;;5.68;3.60;;;22.70;99.90;;;;;;4988893;28;20230;-73
2021/07/08 17:03:37;;;;;;;3.95;3.53;;;22.80;99.90;;;;;;4989776;28;20470;-74
2021/07/08 17:06:04;;;;;;;5.63;4.22;;;23.10;99.90;;;;;;4971738;28;20049;-73
2021/07/08 17:08:36;;;;;;;5.70;4.45;;;23.10;99.90;;;;;;4989138;28;20036;-81
2021/07/08 17:11:02;;;;;;;4.45;3.85;;;23.10;99.90;;;;;;4972018;28;20093;-74
2021/07/08 17:13:28;;;;;;;5.18;3.63;;;23.00;99.90;;;;;;4972957;28;20108;-84
2021/07/08 17:15:53;;;;;;;8.18;3.65;;;22.80;99.90;;;;;;4990385;28;20466;-72
2021/07/08 17:18:19;;;;;;;7.85;4.85;;;22.60;99.90;;;;;;4972515;28;20026;-82
2021/07/08 17:20:45;;;;;;;6.43;5.32;;;22.40;99.90;;;;;;4975491;28;20053;-81
2021/07/08 17:23:11;;;;;;;5.93;4.60;;;22.20;99.90;;;;;;4972080;28;20031;-71
2021/07/08 17:25:37;;;;;;;6.32;4.32;;;22.10;99.90;;;;;;4989940;28;20026;-82
2021/07/08 17:28:03;;;;;;;8.75;5.07;;;21.90;99.90;;;;;;4971774;28;20026;-77
2021/07/08 17:30:29;;;;;;;6.68;4.65;;;21.90;99.90;;;;;;4992723;28;20114;-90
2021/07/08 17:32:54;;;;;;;9.73;4.90;;;21.80;99.90;;;;;;4976461;28;20485;-73
2021/07/08 17:35:20;;;;;;;7.68;5.72;;;21.70;99.90;;;;;;4994036;28;20031;-94
2021/07/08 17:37:47;;;;;;;7.65;5.13;;;21.60;99.90;;;;;;4976095;28;20110;-81
2021/07/08 17:40:14;;;;;;;7.57;5.43;;;21.40;99.90;;;;;;4975812;28;20125;-78
2021/07/08 17:42:42;;;;;;;9.63;6.22;;;21.30;99.90;;;;;;4975455;28;20026;-81
2021/07/08 17:45:09;;;;;;;8.55;5.93;;;21.20;99.90;;;;;;4974005;28;20129;-76
2021/07/08 17:47:35;;;;;;;9.48;7.13;;;21.10;99.90;;;;;;4975070;28;20454;-76
2021/07/08 17:50:05;;;;;;;9.73;7.03;;;20.90;99.90;;;;;;4992350;28;20057;-82
2021/07/08 17:52:31;;;;;;;11.90;7.47;;;20.80;99.90;;;;;;4976776;28;20061;-73
2021/07/08 17:54:57;;;;;;;12.48;8.43;;;20.60;99.90;;;;;;4994512;28;20027;-71
2021/07/08 17:57:23;;;;;;;14.32;8.82;;;20.50;99.90;;;;;;4974874;28;20030;-68
2021/07/08 17:59:48;;;;;;;11.68;7.90;;;20.30;99.90;;;;;;4975242;28;20117;-72
2021/07/08 18:02:14;;;;;;;12.15;7.95;;;20.20;99.90;;;;;;4974934;28;20390;-78
2021/07/08 18:04:40;;;;;;;12.27;6.78;;;20.10;99.90;;;;;;4972600;28;20081;-73
2021/07/08 18:07:08;;;;;;;12.05;6.95;;;20.00;99.90;;;;;;4975015;28;20077;-69
2021/07/08 18:09:34;;;;;;;6.70;5.18;;;19.90;99.90;;;;;;4975776;28;20044;-68
2021/07/08 18:12:01;;;;;;;13.13;7.20;;;19.80;99.90;;;;;;4991046;28;20113;-80
2021/07/08 18:14:28;;;;;;;14.98;7.97;;;19.80;99.90;;;;;;4974278;28;20093;-75
2021/07/08 18:16:53;;;;;;;13.15;6.90;;;19.70;99.90;;;;;;4991630;28;20030;-79
2021/07/08 18:19:19;;;;;;;11.13;7.15;;;19.70;99.90;;;;;;4972405;28;20030;-73
2021/07/08 18:21:44;;;;;;;10.23;7.05;;;19.70;99.90;;;;;;4955120;28;20034;-66
2021/07/08 18:24:10;;;;;;;15.80;9.20;;;19.60;99.90;;;;;;4980450;28;20061;-68
2021/07/08 18:26:36;;;;;;;14.98;9.32;;;19.50;99.90;;;;;;4971924;28;20061;-77
2021/07/08 18:29:02;;;;;;;14.88;9.50;;;19.40;99.90;;;;;;4971054;28;20023;-67
2021/07/08 18:31:28;;;;;;;15.27;9.98;;;19.30;99.90;;;;;;4972337;28;20440;-67
2021/07/08 18:33:53;;;;;;;10.90;8.95;;;19.30;99.90;;;;;;4971933;28;20376;-67
2021/07/08 18:36:19;;;;;;;10.18;7.78;;;19.20;99.90;;;;;;4990187;28;20026;-68
2021/07/08 18:38:44;;;;;;;9.93;7.75;;;19.20;99.90;;;;;;4991642;28;20041;-73
2021/07/08 18:41:10;;;;;;;9.98;8.30;;;19.10;99.90;;;;;;4989621;28;20026;-66
2021/07/08 18:43:35;;;;;;;13.27;9.07;;;19.00;99.90;;;;;;4991668;28;20035;-66
2021/07/08 18:46:01;;;;;;;12.15;8.95;;;19.00;99.90;;;;;;4991469;28;20126;-74
2021/07/08 18:48:27;;;;;;;13.55;9.52;;;19.00;99.90;;;;;;4989787;28;20372;-67
2021/07/08 18:50:53;;;;;;;10.73;9.20;;;18.90;99.90;;;;;;4991504;28;20037;-67
2021/07/08 18:53:19;;;;;;;13.43;9.70;;;18.90;99.90;;;;;;4990973;28;20402;-67
2021/07/08 18:55:44;;;;;;;11.82;9.38;;;18.80;99.90;;;;;;4990414;28;20037;-67
2021/07/08 18:58:10;;;;;;;10.43;8.88;;;18.80;99.90;;;;;;4990968;28;20466;-67
2021/07/08 19:00:37;;;;;;;9.20;8.23;;;18.90;99.90;;;;;;4991099;28;20058;-67
2021/07/08 19:03:04;;;;;;;9.70;8.45;;;18.90;99.90;;;;;;4972724;28;20019;-68
2021/07/08 19:05:30;;;;;;;9.82;8.52;;;18.80;99.90;;;;;;4990663;28;20038;-67
2021/07/08 19:07:56;;;;;;;10.75;9.05;;;18.80;99.90;;;;;;4990256;28;20026;-67
2021/07/08 19:10:21;;;;;;;11.57;9.35;;;18.80;99.90;;;;;;4991028;28;20056;-67
2021/07/08 19:12:47;;;;;;;11.93;9.35;;;18.90;99.90;;;;;;4990271;28;20038;-67
2021/07/08 19:15:13;;;;;;;11.63;9.57;;;18.80;99.90;;;;;;4990092;28;20027;-68
2021/07/08 19:17:39;;;;;;;13.20;9.40;;;18.80;99.90;;;;;;4990504;28;20022;-69
2021/07/08 19:20:07;;;;;;;11.10;8.95;;;18.80;99.90;;;;;;4990426;28;20042;-66
2021/07/08 19:22:33;;;;;;;9.13;8.23;;;18.70;99.90;;;;;;4990438;28;20023;-66
2021/07/08 19:24:59;;;;;;;12.68;9.65;;;18.70;99.90;;;;;;4991568;28;20096;-66
2021/07/08 19:27:25;;;;;;;12.80;9.38;;;18.70;99.90;;;;;;4976223;28;20038;-66
2021/07/08 19:29:51;;;;;;;12.70;9.30;;;18.70;99.90;;;;;;4993460;28;20065;-67
2021/07/08 19:32:18;;;;;;;10.40;9.38;;;18.70;99.90;;;;;;4976186;28;20037;-66
2021/07/08 19:34:45;;;;;;;12.55;9.48;;;18.70;99.90;;;;;;4992951;28;20363;-74
2021/07/08 19:37:14;;;;;;;11.48;10.18;;;18.70;99.90;;;;;;4992922;28;20025;-73
2021/07/08 19:39:40;;;;;;;11.23;9.13;;;18.70;99.90;;;;;;4975481;28;20528;-68
2021/07/08 19:42:07;;;;;;;13.68;10.15;;;18.70;99.90;;;;;;4992393;28;20378;-67
2021/07/08 19:44:33;;;;;;;11.38;9.70;;;18.70;99.90;;;;;;4991842;28;20069;-66
2021/07/08 19:46:59;;;;;;;11.88;9.25;;;18.70;99.90;;;;;;4975588;28;20034;-67
2021/07/08 19:49:26;;;;;;;15.32;9.27;;;18.70;99.90;;;;;;4990835;28;20029;-66
2021/07/08 19:51:55;;;;;;;10.57;9.15;;;18.70;99.90;;;;;;4992048;28;20026;-67
2021/07/08 19:54:23;;;;;;;13.30;9.45;;;18.70;99.90;;;;;;4975180;28;20022;-67
2021/07/08 19:56:50;;;;;;;10.45;9.35;;;18.70;99.90;;;;;;4994210;28;20522;-67
2021/07/08 19:59:16;;;;;;;13.70;10.38;;;18.70;99.90;;;;;;4993045;28;20031;-90
2021/07/08 20:01:43;;;;;;;9.75;8.75;;;18.70;99.90;;;;;;4976893;28;20061;-67
2021/07/08 20:04:08;;;;;;;13.68;9.98;;;18.70;99.90;;;;;;4993022;28;20113;-68
2021/07/08 20:06:34;;;;;;;11.10;9.15;;;18.70;99.90;;;;;;4993861;28;20114;-67
2021/07/08 20:09:00;;;;;;;12.65;9.25;;;18.70;99.90;;;;;;4994078;28;20029;-67
2021/07/08 20:11:26;;;;;;;11.85;10.20;;;18.70;99.90;;;;;;4975373;28;20522;-68
2021/07/08 20:13:53;;;;;;;15.10;10.05;;;18.70;99.90;;;;;;4994158;28;20113;-92
2021/07/08 20:16:20;;;;;;;11.15;9.13;;;18.60;99.90;;;;;;4993734;28;20471;-67
2021/07/08 20:18:46;;;;;;;12.80;10.10;;;18.50;99.90;;;;;;4993138;28;20030;-69
2021/07/08 20:21:12;;;;;;;12.30;9.93;;;18.60;99.90;;;;;;4993704;28;20033;-82
2021/07/08 20:23:37;;;;;;;10.18;8.40;;;18.50;99.90;;;;;;4994063;28;20022;-69
2021/07/08 20:26:03;;;;;;;12.27;9.38;;;18.50;99.90;;;;;;4992765;28;20038;-69
2021/07/08 20:28:28;;;;;;;12.70;9.85;;;18.50;99.90;;;;;;4993714;28;20039;-68
2021/07/08 20:30:54;;;;;;;13.45;9.10;;;18.40;99.90;;;;;;4976176;28;20022;-67
2021/07/08 20:33:22;;;;;;;10.30;9.20;;;18.40;99.90;;;;;;4992726;28;20029;-68
2021/07/08 20:35:48;;;;;;;12.18;9.65;;;18.40;99.90;;;;;;4993723;28;20034;-68
2021/07/08 20:38:13;;;;;;;12.57;9.50;;;18.40;99.90;;;;;;4993332;28;20108;-68
2021/07/08 20:40:39;;;;;;;10.77;9.43;;;18.40;99.90;;;;;;4975489;28;20104;-67
2021/07/08 20:43:05;;;;;;;9.90;8.88;;;18.40;99.90;;;;;;4993372;28;20029;-67
2021/07/08 20:45:31;;;;;;;10.35;8.88;;;18.40;99.90;;;;;;4993383;28;20027;-68
2021/07/08 20:47:57;;;;;;;11.20;8.80;;;18.40;99.90;;;;;;4992952;28;20101;-69
2021/07/08 20:50:23;;;;;;;9.60;8.70;;;18.30;99.90;;;;;;4993041;28;20548;-71
2021/07/08 20:52:48;;;;;;;9.95;8.95;;;18.40;99.90;;;;;;4976065;28;20031;-67
2021/07/08 20:55:14;;;;;;;11.05;9.23;;;18.30;99.90;;;;;;4992575;28;20034;-67
2021/07/08 20:57:41;;;;;;;11.95;9.13;;;18.30;99.90;;;;;;4993515;28;20018;-71
2021/07/08 21:00:07;;;;;;;9.98;8.98;;;18.30;99.90;;;;;;4993111;28;20029;-68
2021/07/08 21:02:33;;;;;;;10.57;8.85;;;18.30;99.90;;;;;;4992786;28;20155;-67
2021/07/08 21:04:59;;;;;;;11.88;9.60;;;18.20;99.90;;;;;;4996327;28;20428;-74
2021/07/08 21:07:24;;;;;;;12.18;9.20;;;18.20;99.90;;;;;;4978901;28;20080;-67
2021/07/08 21:09:51;;;;;;;9.90;8.90;;;18.20;99.90;;;;;;4980003;28;20050;-67
2021/07/08 21:12:17;;;;;;;10.45;9.10;;;18.20;99.90;;;;;;4996856;28;20102;-68
2021/07/08 21:14:42;;;;;;;10.65;9.57;;;18.10;99.90;;;;;;4979203;28;20549;-68
2021/07/08 21:17:08;;;;;;;8.95;8.10;;;18.10;99.90;;;;;;4996931;28;20030;-68
2021/07/08 21:19:34;;;;;;;8.98;7.82;;;18.00;99.90;;;;;;4997137;28;20072;-68
2021/07/08 21:21:59;;;;;;;9.63;8.63;;;18.00;99.90;;;;;;4995923;28;20382;-68
2021/07/08 21:24:25;;;;;;;9.05;8.18;;;18.00;99.90;;;;;;4985734;28;20022;-67
2021/07/08 21:26:50;;;;;;;9.10;8.10;;;17.90;99.90;;;;;;4996428;28;20478;-91
2021/07/08 21:29:16;;;;;;;11.23;8.45;;;17.90;99.90;;;;;;4995720;28;20034;-90
2021/07/08 21:31:42;;;;;;;11.05;7.80;;;17.90;99.90;;;;;;4996709;28;20030;-67
2021/07/08 21:34:09;;;;;;;10.35;8.55;;;17.90;99.90;;;;;;4996731;28;20117;-67
2021/07/08 21:36:35;;;;;;;8.88;7.97;;;17.90;99.90;;;;;;4978813;28;20550;-67
2021/07/08 21:39:01;;;;;;;11.38;8.40;;;17.90;99.90;;;;;;4996780;28;20182;-88
2021/07/08 21:41:30;;;;;;;13.07;9.60;;;17.80;99.90;;;;;;4996176;28;20557;-88
2021/07/08 21:43:55;;;;;;;11.60;8.43;;;17.80;99.90;;;;;;4996201;28;20033;-68
2021/07/08 21:46:22;;;;;;;9.57;8.68;;;17.80;99.90;;;;;;4996280;28;20034;-68
2021/07/08 21:48:47;;;;;;;9.48;8.57;;;17.80;99.90;;;;;;4996304;28;20501;-67
2021/07/08 21:51:13;;;;;;;9.38;8.45;;;17.80;99.90;;;;;;4978065;28;20023;-79
2021/07/08 21:53:39;;;;;;;8.50;7.75;;;17.80;99.90;;;;;;4978954;28;20481;-68
2021/07/08 21:56:04;;;;;;;9.15;8.25;;;17.80;99.90;;;;;;4996345;28;20023;-67
2021/07/08 21:58:30;;;;;;;10.18;9.18;;;17.80;99.90;;;;;;4995381;28;20030;-67
2021/07/08 22:00:55;;;;;;;9.82;8.82;;;17.80;99.90;;;;;;4996126;28;20482;-68
2021/07/08 22:03:21;;;;;;;10.40;9.38;;;17.70;99.90;;;;;;4995971;28;20038;-68
2021/07/08 22:05:46;;;;;;;9.55;8.63;;;17.70;99.90;;;;;;4977434;28;20035;-67
2021/07/08 22:08:12;;;;;;;9.70;8.80;;;17.70;99.90;;;;;;4995896;28;20497;-73
2021/07/08 22:10:38;;;;;;;9.75;8.75;;;17.70;99.90;;;;;;4995329;28;20046;-68
2021/07/08 22:13:04;;;;;;;11.20;10.07;;;17.70;99.90;;;;;;4995421;28;20382;-68
2021/07/08 22:15:31;;;;;;;12.48;9.18;;;17.70;99.90;;;;;;4995174;28;20022;-68
2021/07/08 22:17:57;;;;;;;10.13;8.98;;;17.70;99.90;;;;;;4995554;28;20027;-67
2021/07/08 22:20:26;;;;;;;10.25;9.18;;;17.80;99.90;;;;;;4995299;28;20493;-68
2021/07/08 22:22:52;;;;;;;13.18;10.02;;;17.80;99.90;;;;;;4995966;28;20026;-68
2021/07/08 22:25:19;;;;;;;12.35;9.73;;;17.80;99.90;;;;;;4994643;28;20518;-68
2021/07/08 22:27:44;;;;;;;11.45;9.48;;;17.80;99.90;;;;;;4995787;28;20026;-85
2021/07/08 22:30:12;;;;;;;11.38;10.27;;;17.80;99.90;;;;;;4977567;28;20029;-74
2021/07/08 22:32:38;;;;;;;12.25;9.52;;;17.80;99.90;;;;;;4995154;28;20529;-68
2021/07/08 22:35:04;;;;;;;11.00;9.90;;;17.80;99.90;;;;;;4995477;28;20056;-67
2021/07/08 22:37:30;;;;;;;10.73;9.70;;;17.80;99.90;;;;;;4995601;28;20055;-68
2021/07/08 22:39:55;;;;;;;11.65;10.55;;;17.80;99.90;;;;;;4994549;28;20022;-68
2021/07/08 22:42:21;;;;;;;12.75;9.80;;;17.80;99.90;;;;;;4995166;28;20381;-68
2021/07/08 22:44:46;;;;;;;10.52;9.45;;;17.80;99.90;;;;;;4995725;28;20034;-69
2021/07/08 22:47:12;;;;;;;12.75;11.45;;;17.90;99.90;;;;;;4994528;28;20034;-68
2021/07/08 22:49:37;;;;;;;13.45;10.38;;;17.90;99.90;;;;;;4977630;28;20367;-68
2021/07/08 22:52:03;;;;;;;12.48;10.60;;;17.90;99.90;;;;;;4995264;28;20128;-68
2021/07/08 22:54:29;;;;;;;11.20;9.88;;;17.90;99.90;;;;;;4994619;28;20031;-68
2021/07/08 22:56:54;;;;;;;13.15;10.77;;;17.90;99.90;;;;;;4995297;28;20045;-68
2021/07/08 22:59:20;;;;;;;13.13;9.73;;;17.80;99.90;;;;;;4994607;28;20032;-69
2021/07/08 23:01:46;;;;;;;10.82;9.30;;;17.80;99.90;;;;;;4977126;28;20033;-68
2021/07/08 23:04:11;;;;;;;10.65;9.57;;;17.80;99.90;;;;;;4995035;28;20077;-68
2021/07/08 23:06:37;;;;;;;11.05;10.05;;;17.80;99.90;;;;;;4995371;28;20034;-67
2021/07/08 23:09:03;;;;;;;14.00;9.35;;;17.80;99.90;;;;;;4993856;28;20157;-68
2021/07/08 23:11:28;;;;;;;10.50;9.50;;;17.90;99.90;;;;;;4994748;28;20120;-68
2021/07/08 23:13:54;;;;;;;12.00;8.98;;;17.80;99.90;;;;;;4993837;28;20398;-67
2021/07/08 23:16:19;;;;;;;10.27;9.27;;;17.80;99.90;;;;;;4994727;28;20022;-67
2021/07/08 23:18:46;;;;;;;9.82;8.65;;;17.80;99.90;;;;;;4994926;28;20101;-87
2021/07/08 23:21:12;;;;;;;9.38;8.40;;;17.80;99.90;;;;;;4976125;28;20732;-68
2021/07/08 23:23:38;;;;;;;11.73;8.85;;;17.80;99.90;;;;;;4994700;28;20026;-67
2021/07/08 23:26:04;;;;;;;10.00;9.00;;;17.80;99.90;;;;;;4994187;28;20120;-67
2021/07/08 23:28:29;;;;;;;13.52;10.63;;;17.80;99.90;;;;;;4993922;28;20073;-68
2021/07/08 23:30:56;;;;;;;10.65;9.73;;;17.80;99.90;;;;;;4994404;28;20027;-67
2021/07/08 23:33:21;;;;;;;11.65;9.93;;;17.80;99.90;;;;;;4994088;28;20029;-81
2021/07/08 23:35:47;;;;;;;12.27;9.88;;;17.80;99.90;;;;;;4993745;28;20026;-67
2021/07/08 23:38:13;;;;;;;10.27;9.27;;;17.80;99.90;;;;;;4993480;28;20105;-89
2021/07/08 23:40:38;;;;;;;11.02;9.93;;;17.80;99.90;;;;;;4987458;28;20031;-67
